Time;durP1;ratioP1;P1;durP2;ratioP2;P2;SDS_P1;SDS_P2;PMS_P1;PMS_P2;Temp;Humidity;BMP_temperature;BMP_pressure;BME280_temperature;BME280_humidity;BME280_pressure;Samples;Min_cycle;Max_cycle;Signal;HPM_P1;HPM_P2
2022/07/08 00:00:12;;;;;;;7.03;3.19;;;;;;;;;;373253;143;859940;-66
2022/07/08 00:01:14;;;;;;;11.09;3.30;;;;;;;;;;373181;144;857280;-66
2022/07/08 00:02:16;;;;;;;8.64;3.59;;;;;;;;;;373162;144;859149;-66
2022/07/08 00:03:18;;;;;;;6.24;2.96;;;;;;;;;;372914;144;865216;-67
2022/07/08 00:04:20;;;;;;;5.85;3.51;;;;;;;;;;373184;144;857379;-66
2022/07/08 00:05:22;;;;;;;8.10;3.28;;;;;;;;;;373171;143;859904;-66
2022/07/08 00:06:25;;;;;;;11.97;3.65;;;;;;;;;;373073;144;858824;-66
2022/07/08 00:07:27;;;;;;;8.54;3.50;;;;;;;;;;372910;144;865087;-67
2022/07/08 00:08:30;;;;;;;10.37;3.70;;;;;;;;;;373118;144;865241;-67
2022/07/08 00:09:32;;;;;;;8.61;3.62;;;;;;;;;;366885;146;857720;-65
2022/07/08 00:10:34;;;;;;;14.52;3.96;;;;;;;;;;367151;144;859221;-67
2022/07/08 00:11:36;;;;;;;13.59;3.51;;;;;;;;;;373137;144;857762;-67
2022/07/08 00:12:38;;;;;;;8.53;3.82;;;;;;;;;;372885;144;866941;-67
2022/07/08 00:13:40;;;;;;;12.57;3.98;;;;;;;;;;373143;144;857471;-66
2022/07/08 00:14:42;;;;;;;10.71;4.44;;;;;;;;;;373173;144;857096;-66
2022/07/08 00:15:44;;;;;;;8.58;3.59;;;;;;;;;;373116;144;864572;-67
2022/07/08 00:16:46;;;;;;;7.51;3.36;;;;;;;;;;372989;143;857304;-67
2022/07/08 00:17:48;;;;;;;8.43;3.74;;;;;;;;;;373034;144;857374;-67
2022/07/08 00:18:50;;;;;;;10.51;4.11;;;;;;;;;;373300;144;858075;-65
2022/07/08 00:19:51;;;;;;;10.08;3.91;;;;;;;;;;373013;144;861114;-64
2022/07/08 00:20:53;;;;;;;8.42;3.34;;;;;;;;;;373120;144;865635;-64
2022/07/08 00:21:55;;;;;;;10.07;3.49;;;;;;;;;;373113;144;865614;-65
2022/07/08 00:22:57;;;;;;;7.93;3.21;;;;;;;;;;373192;143;857620;-65
2022/07/08 00:23:59;;;;;;;8.04;3.41;;;;;;;;;;373160;143;859154;-65
2022/07/08 00:25:01;;;;;;;6.78;2.95;;;;;;;;;;373202;144;857474;-65
2022/07/08 00:26:03;;;;;;;7.39;3.18;;;;;;;;;;373118;144;867276;-64
2022/07/08 00:27:05;;;;;;;28.00;4.05;;;;;;;;;;373145;144;857840;-64
2022/07/08 00:28:06;;;;;;;8.52;3.39;;;;;;;;;;373136;144;865389;-65
2022/07/08 00:29:08;;;;;;;9.31;3.25;;;;;;;;;;373137;144;864860;-65
2022/07/08 00:30:12;;;;;;;7.77;2.77;;;;;;;;;;372979;143;857285;-65
2022/07/08 00:31:14;;;;;;;7.52;2.90;;;;;;;;;;373119;144;857800;-65
2022/07/08 00:32:16;;;;;;;6.79;2.83;;;;;;;;;;373177;143;859645;-65
2022/07/08 00:33:17;;;;;;;4.77;2.71;;;;;;;;;;373193;144;857539;-65
2022/07/08 00:34:19;;;;;;;11.41;3.16;;;;;;;;;;373133;143;864838;-65
2022/07/08 00:35:21;;;;;;;8.67;2.94;;;;;;;;;;373123;144;864639;-65
2022/07/08 00:36:24;;;;;;;4.46;2.60;;;;;;;;;;373126;143;857199;-65
2022/07/08 00:37:26;;;;;;;3.64;2.49;;;;;;;;;;366970;145;865191;-65
2022/07/08 00:38:28;;;;;;;4.10;2.24;;;;;;;;;;367033;146;857312;-66
2022/07/08 00:39:30;;;;;;;6.63;2.65;;;;;;;;;;373176;144;857798;-65
2022/07/08 00:40:34;;;;;;;11.11;2.30;;;;;;;;;;373125;143;857961;-65
2022/07/08 00:41:36;;;;;;;3.50;2.49;;;;;;;;;;373070;143;857452;-65
2022/07/08 00:42:38;;;;;;;6.13;2.59;;;;;;;;;;372988;144;864420;-65
2022/07/08 00:43:40;;;;;;;5.41;2.93;;;;;;;;;;373062;143;858085;-65
2022/07/08 00:44:42;;;;;;;4.53;2.66;;;;;;;;;;373063;144;866382;-65
2022/07/08 00:45:44;;;;;;;4.93;2.56;;;;;;;;;;373176;144;859237;-65
2022/07/08 00:46:46;;;;;;;4.43;2.69;;;;;;;;;;373140;144;865140;-65
2022/07/08 00:47:48;;;;;;;5.78;2.40;;;;;;;;;;373142;144;861470;-64
2022/07/08 00:48:49;;;;;;;9.15;2.89;;;;;;;;;;373125;144;866351;-64
2022/07/08 00:49:51;;;;;;;7.54;2.73;;;;;;;;;;373142;144;857884;-65
2022/07/08 00:50:53;;;;;;;8.05;2.56;;;;;;;;;;373173;143;859341;-64
2022/07/08 00:51:54;;;;;;;5.36;2.86;;;;;;;;;;372907;144;867804;-64
2022/07/08 00:52:57;;;;;;;4.81;2.51;;;;;;;;;;381516;140;864959;-64
2022/07/08 00:53:58;;;;;;;7.83;2.80;;;;;;;;;;376769;142;864546;-64
2022/07/08 00:55:00;;;;;;;8.15;2.77;;;;;;;;;;377192;140;857190;-64
2022/07/08 00:56:02;;;;;;;3.52;2.40;;;;;;;;;;383699;139;857347;-65
2022/07/08 00:57:04;;;;;;;5.07;2.64;;;;;;;;;;383676;140;858837;-64
2022/07/08 00:58:06;;;;;;;6.19;2.77;;;;;;;;;;383380;139;866493;-64
2022/07/08 00:59:09;;;;;;;5.32;2.78;;;;;;;;;;383656;140;857867;-64
2022/07/08 01:00:12;;;;;;;6.14;2.51;;;;;;;;;;383434;140;864574;-64
2022/07/08 01:01:15;;;;;;;4.37;2.94;;;;;;;;;;383653;139;860292;-64
2022/07/08 01:02:17;;;;;;;6.11;3.31;;;;;;;;;;376910;142;857434;-64
2022/07/08 01:03:19;;;;;;;7.36;3.04;;;;;;;;;;377205;140;859578;-64
2022/07/08 01:04:21;;;;;;;5.29;3.05;;;;;;;;;;383677;140;859581;-65
2022/07/08 01:05:22;;;;;;;6.78;3.13;;;;;;;;;;383680;139;858468;-65
2022/07/08 01:06:25;;;;;;;5.19;3.21;;;;;;;;;;376774;142;857960;-65
2022/07/08 01:07:27;;;;;;;4.60;2.85;;;;;;;;;;377283;140;860988;-65
2022/07/08 01:08:29;;;;;;;11.69;2.79;;;;;;;;;;383638;139;859799;-65
2022/07/08 01:09:31;;;;;;;6.32;3.20;;;;;;;;;;383372;139;857336;-65
2022/07/08 01:10:32;;;;;;;6.31;2.82;;;;;;;;;;383647;140;857224;-65
2022/07/08 01:11:34;;;;;;;6.94;3.05;;;;;;;;;;383348;140;866807;-65
2022/07/08 01:12:36;;;;;;;4.79;2.80;;;;;;;;;;383585;139;865691;-65
2022/07/08 01:13:37;;;;;;;7.61;2.89;;;;;;;;;;376925;142;857396;-64
2022/07/08 01:14:39;;;;;;;4.63;2.98;;;;;;;;;;376958;142;860516;-64
2022/07/08 01:15:40;;;;;;;7.82;3.11;;;;;;;;;;377078;142;865235;-64
2022/07/08 01:16:42;;;;;;;4.50;2.91;;;;;;;;;;377140;140;864269;-65
2022/07/08 01:21:03;;;;;;;4.98;2.97;;;;;;;;;;383168;140;859008;-65
2022/07/08 01:22:05;;;;;;;3.28;2.73;;;;;;;;;;383691;140;857218;-65
2022/07/08 01:23:07;;;;;;;4.74;2.86;;;;;;;;;;377157;142;858295;-65
2022/07/08 01:24:08;;;;;;;5.62;3.24;;;;;;;;;;377081;140;866565;-65
2022/07/08 01:25:10;;;;;;;5.78;3.09;;;;;;;;;;383430;140;857596;-65
2022/07/08 01:26:13;;;;;;;6.28;2.89;;;;;;;;;;383395;139;864987;-65
2022/07/08 01:27:15;;;;;;;6.01;2.89;;;;;;;;;;383709;139;857996;-65
2022/07/08 01:28:18;;;;;;;5.30;2.66;;;;;;;;;;383628;139;864899;-65
2022/07/08 01:29:20;;;;;;;3.55;2.51;;;;;;;;;;383464;139;864965;-65
2022/07/08 01:30:24;;;;;;;6.12;2.83;;;;;;;;;;383375;140;857677;-65
2022/07/08 01:31:26;;;;;;;5.05;2.72;;;;;;;;;;383639;139;857444;-65
2022/07/08 01:32:36;;;;;;;5.35;2.79;;;;;;;;;;383609;139;857441;-65
2022/07/08 01:33:38;;;;;;;3.94;2.69;;;;;;;;;;382448;140;859301;-65
2022/07/08 01:34:39;;;;;;;5.89;2.77;;;;;;;;;;383673;140;857456;-65
2022/07/08 01:35:41;;;;;;;4.67;2.71;;;;;;;;;;383609;139;866995;-65
2022/07/08 01:36:43;;;;;;;4.38;2.36;;;;;;;;;;383575;139;865049;-65
2022/07/08 01:37:45;;;;;;;5.35;2.83;;;;;;;;;;383402;140;864779;-65
2022/07/08 01:38:46;;;;;;;7.39;2.77;;;;;;;;;;383413;140;865373;-65
2022/07/08 01:39:48;;;;;;;5.65;2.77;;;;;;;;;;383615;139;867064;-65
2022/07/08 01:40:50;;;;;;;5.05;2.68;;;;;;;;;;383661;139;859166;-65
2022/07/08 01:41:52;;;;;;;4.15;2.82;;;;;;;;;;383674;139;859729;-65
2022/07/08 01:42:54;;;;;;;5.45;2.45;;;;;;;;;;383663;139;859684;-65
2022/07/08 01:43:56;;;;;;;7.20;2.49;;;;;;;;;;383659;140;859013;-64
2022/07/08 01:44:58;;;;;;;9.46;3.17;;;;;;;;;;383549;139;865026;-66
2022/07/08 01:46:00;;;;;;;7.46;2.95;;;;;;;;;;383668;139;857717;-64
2022/07/08 01:47:02;;;;;;;6.45;2.82;;;;;;;;;;383369;140;857285;-64
2022/07/08 01:48:04;;;;;;;3.17;2.67;;;;;;;;;;383499;139;857354;-64
2022/07/08 01:49:05;;;;;;;7.06;3.45;;;;;;;;;;383410;139;856931;-64
2022/07/08 01:50:08;;;;;;;5.64;3.06;;;;;;;;;;383691;140;857857;-64
2022/07/08 01:51:09;;;;;;;4.74;2.75;;;;;;;;;;383668;140;858588;-64
2022/07/08 01:52:11;;;;;;;4.08;2.44;;;;;;;;;;383580;139;865393;-64
2022/07/08 01:53:13;;;;;;;7.61;2.80;;;;;;;;;;383677;139;858507;-65
2022/07/08 01:54:14;;;;;;;3.41;2.64;;;;;;;;;;383619;139;862015;-64
2022/07/08 01:55:16;;;;;;;7.19;2.44;;;;;;;;;;383618;140;864914;-64
2022/07/08 01:56:20;;;;;;;3.98;2.81;;;;;;;;;;383404;139;865170;-65
2022/07/08 01:57:22;;;;;;;4.75;2.91;;;;;;;;;;383617;139;865186;-64
2022/07/08 01:58:23;;;;;;;4.04;2.60;;;;;;;;;;383646;140;859024;-64
2022/07/08 01:59:25;;;;;;;5.11;2.97;;;;;;;;;;383617;139;865046;-64
2022/07/08 02:00:28;;;;;;;5.67;2.75;;;;;;;;;;383579;140;864891;-65
2022/07/08 02:01:30;;;;;;;8.09;2.78;;;;;;;;;;383411;139;857377;-65
2022/07/08 02:02:32;;;;;;;5.15;2.59;;;;;;;;;;383547;139;859512;-64
2022/07/08 02:03:33;;;;;;;4.73;2.69;;;;;;;;;;377182;142;857403;-64
2022/07/08 02:04:35;;;;;;;3.98;2.61;;;;;;;;;;377152;140;858271;-65
2022/07/08 02:05:37;;;;;;;5.16;2.68;;;;;;;;;;383654;140;858520;-66
2022/07/08 02:06:39;;;;;;;3.78;2.68;;;;;;;;;;383616;139;865165;-65
2022/07/08 02:07:41;;;;;;;4.09;2.71;;;;;;;;;;377105;142;859111;-65
2022/07/08 02:08:43;;;;;;;3.84;2.76;;;;;;;;;;376906;142;857416;-65
2022/07/08 02:09:44;;;;;;;5.48;2.46;;;;;;;;;;383592;140;865173;-65
2022/07/08 02:12:21;;;;;;;5.07;2.71;;;;;;;;;;374906;143;865074;-65
2022/07/08 02:13:23;;;;;;;3.72;2.39;;;;;;;;;;375002;143;857186;-65
2022/07/08 02:14:24;;;;;;;6.41;2.77;;;;;;;;;;375194;143;858871;-65
2022/07/08 02:15:27;;;;;;;3.55;2.41;;;;;;;;;;368125;146;865869;-65
2022/07/08 02:16:29;;;;;;;3.59;2.55;;;;;;;;;;368307;143;858356;-65
2022/07/08 02:17:33;;;;;;;4.29;2.28;;;;;;;;;;375255;143;857588;-64
2022/07/08 02:18:35;;;;;;;5.07;2.57;;;;;;;;;;373133;143;859430;-65
2022/07/08 02:19:36;;;;;;;4.34;2.84;;;;;;;;;;375168;143;865335;-65
2022/07/08 02:20:38;;;;;;;5.56;2.54;;;;;;;;;;374936;143;863649;-65
2022/07/08 02:21:40;;;;;;;5.67;2.79;;;;;;;;;;366177;147;866434;-64
2022/07/08 02:22:43;;;;;;;4.83;2.77;;;;;;;;;;366297;143;866362;-65
2022/07/08 02:23:45;;;;;;;5.01;2.67;;;;;;;;;;374891;143;857556;-65
2022/07/08 02:24:49;;;;;;;4.32;2.74;;;;;;;;;;375228;143;857405;-65
2022/07/08 02:25:51;;;;;;;3.62;2.64;;;;;;;;;;374924;143;866479;-64
2022/07/08 02:26:53;;;;;;;6.75;2.86;;;;;;;;;;375140;143;866662;-64
2022/07/08 02:27:55;;;;;;;5.93;2.84;;;;;;;;;;375203;143;858835;-64
2022/07/08 02:28:56;;;;;;;4.41;2.76;;;;;;;;;;375133;143;867151;-64
2022/07/08 02:29:58;;;;;;;4.69;2.83;;;;;;;;;;375202;143;856786;-65
2022/07/08 02:31:00;;;;;;;4.85;2.77;;;;;;;;;;375188;143;860018;-65
2022/07/08 02:32:02;;;;;;;6.55;2.68;;;;;;;;;;375222;143;857408;-65
2022/07/08 02:33:04;;;;;;;6.96;3.13;;;;;;;;;;368161;146;864776;-65
2022/07/08 02:34:05;;;;;;;5.64;2.52;;;;;;;;;;368187;146;858172;-65
2022/07/08 02:35:07;;;;;;;6.08;2.85;;;;;;;;;;374964;143;858024;-65
2022/07/08 02:36:10;;;;;;;5.86;2.56;;;;;;;;;;375093;143;864966;-65
2022/07/08 02:37:13;;;;;;;7.69;2.86;;;;;;;;;;375058;143;857858;-65
2022/07/08 02:38:15;;;;;;;4.76;2.39;;;;;;;;;;374918;143;865809;-65
2022/07/08 02:39:17;;;;;;;6.46;2.98;;;;;;;;;;375243;143;857454;-65
2022/07/08 02:40:19;;;;;;;3.75;2.72;;;;;;;;;;374936;143;866830;-65
2022/07/08 02:41:21;;;;;;;5.93;2.61;;;;;;;;;;375182;143;858894;-65
2022/07/08 02:42:24;;;;;;;5.03;2.98;;;;;;;;;;375231;143;857877;-65
2022/07/08 02:43:26;;;;;;;4.58;2.62;;;;;;;;;;374912;143;857578;-65
2022/07/08 02:44:27;;;;;;;4.79;2.83;;;;;;;;;;375223;143;857593;-65
2022/07/08 02:45:29;;;;;;;3.95;2.86;;;;;;;;;;375197;143;860826;-65
2022/07/08 02:46:32;;;;;;;7.52;2.77;;;;;;;;;;375147;143;866258;-65
2022/07/08 02:47:34;;;;;;;3.41;2.75;;;;;;;;;;380108;140;857914;-65
2022/07/08 02:48:35;;;;;;;8.15;3.04;;;;;;;;;;383574;139;866172;-65
2022/07/08 02:49:37;;;;;;;5.17;2.91;;;;;;;;;;383411;139;857605;-65
2022/07/08 02:50:39;;;;;;;3.77;2.58;;;;;;;;;;383493;140;857982;-65
2022/07/08 02:51:41;;;;;;;6.23;2.64;;;;;;;;;;383658;139;866345;-65
2022/07/08 02:52:43;;;;;;;5.72;2.60;;;;;;;;;;383645;140;859250;-65
2022/07/08 02:53:44;;;;;;;3.62;2.49;;;;;;;;;;383615;139;858954;-65
2022/07/08 02:54:46;;;;;;;3.54;2.49;;;;;;;;;;377083;142;864872;-65
2022/07/08 02:55:48;;;;;;;5.43;2.69;;;;;;;;;;377177;140;859111;-65
2022/07/08 02:56:50;;;;;;;5.59;2.79;;;;;;;;;;383646;140;858652;-65
2022/07/08 02:57:52;;;;;;;4.71;2.92;;;;;;;;;;383637;140;859333;-65
2022/07/08 02:58:53;;;;;;;5.59;2.56;;;;;;;;;;383333;140;866719;-65
2022/07/08 02:59:55;;;;;;;6.35;2.74;;;;;;;;;;383592;139;865151;-65
2022/07/08 03:00:57;;;;;;;5.00;2.56;;;;;;;;;;383622;140;860834;-65
2022/07/08 03:01:58;;;;;;;4.53;3.00;;;;;;;;;;383370;140;864980;-65
2022/07/08 03:03:00;;;;;;;3.85;2.44;;;;;;;;;;383433;139;864794;-65
2022/07/08 03:04:02;;;;;;;4.20;2.60;;;;;;;;;;383609;140;864862;-65
2022/07/08 03:05:04;;;;;;;4.12;2.55;;;;;;;;;;383581;140;866096;-65
2022/07/08 03:06:07;;;;;;;3.78;2.66;;;;;;;;;;383610;139;857669;-65
2022/07/08 03:07:09;;;;;;;2.61;2.34;;;;;;;;;;383490;139;857470;-63
2022/07/08 03:08:10;;;;;;;4.49;2.67;;;;;;;;;;383639;140;859269;-65
2022/07/08 03:09:12;;;;;;;3.29;2.49;;;;;;;;;;383618;140;864860;-65
2022/07/08 03:10:15;;;;;;;4.59;2.60;;;;;;;;;;383264;140;865014;-65
2022/07/08 03:11:17;;;;;;;5.40;2.40;;;;;;;;;;383455;140;857521;-65
2022/07/08 03:12:19;;;;;;;5.14;2.39;;;;;;;;;;383648;140;859235;-65
2022/07/08 03:13:20;;;;;;;6.43;2.50;;;;;;;;;;377130;142;864965;-65
2022/07/08 03:14:22;;;;;;;5.32;2.81;;;;;;;;;;377101;140;865355;-65
2022/07/08 03:15:25;;;;;;;6.01;2.77;;;;;;;;;;376855;142;857606;-65
2022/07/08 03:16:27;;;;;;;3.43;2.62;;;;;;;;;;377218;140;857281;-65
2022/07/08 03:17:28;;;;;;;4.21;2.65;;;;;;;;;;383584;139;865294;-65
2022/07/08 03:18:32;;;;;;;4.60;2.73;;;;;;;;;;383624;139;865670;-65
2022/07/08 03:19:34;;;;;;;3.23;2.42;;;;;;;;;;382903;140;857858;-64
2022/07/08 03:20:36;;;;;;;5.45;2.77;;;;;;;;;;383662;139;857474;-64
2022/07/08 03:21:37;;;;;;;6.99;3.10;;;;;;;;;;383691;139;857290;-65
2022/07/08 03:22:39;;;;;;;4.47;2.54;;;;;;;;;;383621;139;865629;-64
2022/07/08 03:23:41;;;;;;;5.47;2.65;;;;;;;;;;383597;139;867235;-65
2022/07/08 03:24:43;;;;;;;4.46;2.76;;;;;;;;;;383685;140;858002;-66
2022/07/08 03:25:44;;;;;;;4.51;2.51;;;;;;;;;;383606;140;865389;-64
2022/07/08 03:26:46;;;;;;;4.51;2.56;;;;;;;;;;383585;140;864989;-65
2022/07/08 03:27:48;;;;;;;5.41;2.64;;;;;;;;;;383764;139;864359;-64
2022/07/08 03:28:50;;;;;;;6.03;2.97;;;;;;;;;;383594;140;865835;-64
2022/07/08 03:29:51;;;;;;;8.91;2.83;;;;;;;;;;383638;140;857415;-67
2022/07/08 03:30:53;;;;;;;7.26;2.68;;;;;;;;;;383604;139;866972;-64
2022/07/08 03:31:55;;;;;;;5.61;2.71;;;;;;;;;;383578;139;859910;-65
2022/07/08 03:32:57;;;;;;;5.72;2.74;;;;;;;;;;383560;139;866876;-64
2022/07/08 03:33:59;;;;;;;4.06;2.73;;;;;;;;;;383349;139;857783;-65
2022/07/08 03:35:01;;;;;;;4.14;3.14;;;;;;;;;;383322;140;866866;-65
2022/07/08 03:36:03;;;;;;;4.83;2.91;;;;;;;;;;383602;140;864701;-64
2022/07/08 03:37:04;;;;;;;7.19;2.87;;;;;;;;;;383671;139;858510;-65
2022/07/08 03:38:06;;;;;;;7.36;2.86;;;;;;;;;;383664;140;857670;-65
2022/07/08 03:39:08;;;;;;;6.41;2.86;;;;;;;;;;383602;139;864722;-65
2022/07/08 03:41:31;;;;;;;6.18;2.95;;;;;;;;;;383122;140;857815;-65
2022/07/08 03:42:33;;;;;;;5.28;2.84;;;;;;;;;;383655;139;857351;-64
2022/07/08 03:43:35;;;;;;;4.61;2.81;;;;;;;;;;383648;140;858427;-65
2022/07/08 03:44:37;;;;;;;3.51;2.74;;;;;;;;;;383379;139;857359;-64
2022/07/08 03:45:39;;;;;;;4.95;2.90;;;;;;;;;;383592;140;864980;-64
2022/07/08 03:46:40;;;;;;;7.39;2.51;;;;;;;;;;383571;140;864892;-65
2022/07/08 03:47:42;;;;;;;6.33;3.23;;;;;;;;;;383597;140;866602;-65
2022/07/08 03:48:44;;;;;;;5.44;2.94;;;;;;;;;;383331;140;865193;-64
2022/07/08 03:49:45;;;;;;;3.80;2.95;;;;;;;;;;383597;139;864721;-65
2022/07/08 03:50:47;;;;;;;5.24;3.61;;;;;;;;;;383656;139;858170;-64
2022/07/08 03:51:49;;;;;;;6.03;2.88;;;;;;;;;;383605;140;865157;-64
2022/07/08 03:52:51;;;;;;;5.97;2.64;;;;;;;;;;383549;140;864907;-65
2022/07/08 03:53:53;;;;;;;7.60;2.88;;;;;;;;;;383532;139;865746;-65
2022/07/08 03:54:58;;;;;;;6.21;3.06;;;;;;;;;;383423;139;861177;-64
2022/07/08 03:56:00;;;;;;;3.59;3.05;;;;;;;;;;383652;140;857872;-64
2022/07/08 03:57:02;;;;;;;6.34;3.06;;;;;;;;;;383599;139;866644;-64
2022/07/08 03:58:04;;;;;;;7.28;3.06;;;;;;;;;;383692;139;864699;-64
2022/07/08 03:59:05;;;;;;;6.64;3.04;;;;;;;;;;377123;142;858805;-65
2022/07/08 04:00:08;;;;;;;8.94;4.24;;;;;;;;;;377210;140;861410;-65
2022/07/08 04:01:10;;;;;;;6.99;3.27;;;;;;;;;;377130;142;857530;-65
2022/07/08 04:02:12;;;;;;;5.90;3.06;;;;;;;;;;377106;142;857620;-65
2022/07/08 04:06:32;;;;;;;8.20;3.09;;;;;;;;;;383467;140;857150;-64
2022/07/08 04:07:34;;;;;;;6.83;3.19;;;;;;;;;;383648;139;857285;-64
2022/07/08 04:08:36;;;;;;;6.53;2.89;;;;;;;;;;383615;139;866066;-64
2022/07/08 04:09:38;;;;;;;6.49;3.30;;;;;;;;;;383356;139;864891;-64
2022/07/08 04:10:39;;;;;;;3.43;2.86;;;;;;;;;;383474;139;858065;-64
2022/07/08 04:11:41;;;;;;;3.60;3.07;;;;;;;;;;383614;140;860672;-65
2022/07/08 04:12:43;;;;;;;5.32;2.95;;;;;;;;;;383596;140;865954;-64
2022/07/08 04:13:45;;;;;;;5.41;3.31;;;;;;;;;;383647;139;859109;-65
2022/07/08 04:14:47;;;;;;;4.45;3.25;;;;;;;;;;377181;142;857388;-64
2022/07/08 04:15:52;;;;;;;3.46;2.94;;;;;;;;;;377108;142;858196;-65
2022/07/08 04:16:54;;;;;;;5.67;2.93;;;;;;;;;;383419;139;858988;-66
2022/07/08 04:17:56;;;;;;;9.67;3.59;;;;;;;;;;377147;142;858599;-66
2022/07/08 04:18:57;;;;;;;5.34;3.43;;;;;;;;;;377227;140;857364;-66
2022/07/08 04:19:59;;;;;;;6.96;3.33;;;;;;;;;;383659;139;857392;-66
2022/07/08 04:21:01;;;;;;;8.51;3.17;;;;;;;;;;383571;139;865736;-66
2022/07/08 04:22:03;;;;;;;6.31;3.11;;;;;;;;;;383606;139;858709;-65
2022/07/08 04:23:05;;;;;;;7.75;3.03;;;;;;;;;;383606;140;859796;-65
2022/07/08 04:24:07;;;;;;;7.69;3.14;;;;;;;;;;383633;140;857839;-65
2022/07/08 04:25:09;;;;;;;5.19;3.19;;;;;;;;;;383532;140;859349;-66
2022/07/08 04:26:12;;;;;;;9.67;3.73;;;;;;;;;;383427;139;857332;-65
2022/07/08 04:27:14;;;;;;;5.24;3.27;;;;;;;;;;383387;139;859621;-66
2022/07/08 04:28:16;;;;;;;4.76;2.89;;;;;;;;;;383650;140;859321;-66
2022/07/08 04:29:18;;;;;;;5.75;2.99;;;;;;;;;;383527;140;864714;-66
2022/07/08 04:30:22;;;;;;;10.30;3.39;;;;;;;;;;383492;140;857371;-65
2022/07/08 04:31:24;;;;;;;5.24;3.06;;;;;;;;;;383636;140;859744;-66
2022/07/08 04:32:25;;;;;;;7.39;3.05;;;;;;;;;;383590;140;867028;-66
2022/07/08 04:33:27;;;;;;;4.09;2.70;;;;;;;;;;383672;140;858555;-66
2022/07/08 04:34:29;;;;;;;4.37;2.99;;;;;;;;;;383636;139;866673;-65
2022/07/08 04:35:31;;;;;;;5.63;3.00;;;;;;;;;;376982;142;859991;-66
2022/07/08 04:36:33;;;;;;;8.25;3.09;;;;;;;;;;377227;140;865082;-65
2022/07/08 04:37:34;;;;;;;8.41;3.14;;;;;;;;;;383644;139;859580;-65
2022/07/08 04:38:36;;;;;;;4.87;2.93;;;;;;;;;;383375;139;857599;-66
2022/07/08 04:39:38;;;;;;;6.96;2.79;;;;;;;;;;383454;139;864891;-66
2022/07/08 04:40:40;;;;;;;3.50;2.77;;;;;;;;;;383513;140;858271;-65
2022/07/08 04:41:43;;;;;;;5.22;3.26;;;;;;;;;;383403;140;866597;-65
2022/07/08 04:42:46;;;;;;;5.09;3.01;;;;;;;;;;383664;139;858148;-65
2022/07/08 04:43:48;;;;;;;3.79;2.86;;;;;;;;;;383700;139;857325;-65
2022/07/08 04:44:50;;;;;;;4.96;3.10;;;;;;;;;;383668;139;857442;-65
2022/07/08 04:45:52;;;;;;;5.97;3.25;;;;;;;;;;383624;139;866261;-65
2022/07/08 04:46:53;;;;;;;7.88;3.34;;;;;;;;;;383665;139;859927;-65
2022/07/08 04:47:55;;;;;;;5.15;3.11;;;;;;;;;;383673;139;857569;-65
2022/07/08 04:48:57;;;;;;;7.50;3.16;;;;;;;;;;383629;139;862605;-65
2022/07/08 04:49:59;;;;;;;6.25;2.76;;;;;;;;;;383615;140;864800;-65
2022/07/08 04:51:00;;;;;;;6.33;3.51;;;;;;;;;;383698;139;865062;-65
2022/07/08 04:52:06;;;;;;;4.88;3.35;;;;;;;;;;383678;140;859067;-65
2022/07/08 04:53:06;;;;;;;5.03;2.85;;;;;;;;;;383302;140;864934;-65
2022/07/08 04:54:08;;;;;;;6.15;3.33;;;;;;;;;;383646;140;858849;-65
2022/07/08 04:55:27;;;;;;;12.02;3.44;;;;;;;;;;383283;139;866846;-66
2022/07/08 04:56:16;;;;;;;6.37;3.11;;;;;;;;;;374540;142;865079;-65
2022/07/08 04:57:18;;;;;;;6.25;3.39;;;;;;;;;;377535;140;857147;-65
2022/07/08 04:58:20;;;;;;;7.21;3.04;;;;;;;;;;383632;139;860979;-65
2022/07/08 04:59:21;;;;;;;12.71;3.54;;;;;;;;;;383611;140;865290;-65
2022/07/08 05:00:24;;;;;;;5.01;3.17;;;;;;;;;;377085;142;864912;-65
2022/07/08 05:01:26;;;;;;;7.86;3.31;;;;;;;;;;377321;140;858108;-65
2022/07/08 05:02:28;;;;;;;8.11;3.17;;;;;;;;;;383508;140;857339;-65
2022/07/08 05:03:30;;;;;;;5.08;3.14;;;;;;;;;;383447;140;865490;-66
2022/07/08 05:04:31;;;;;;;5.64;2.86;;;;;;;;;;383586;140;865660;-65
2022/07/08 05:05:34;;;;;;;5.11;2.98;;;;;;;;;;383615;140;865314;-65
2022/07/08 05:06:36;;;;;;;7.49;2.85;;;;;;;;;;383531;139;865021;-65
2022/07/08 05:07:38;;;;;;;5.49;2.95;;;;;;;;;;383627;140;857417;-66
2022/07/08 05:08:39;;;;;;;5.76;3.14;;;;;;;;;;383648;139;859424;-65
2022/07/08 05:09:41;;;;;;;7.00;2.81;;;;;;;;;;383629;139;865284;-66
2022/07/08 05:10:43;;;;;;;6.11;3.51;;;;;;;;;;383639;140;858340;-66
2022/07/08 05:11:44;;;;;;;8.51;3.08;;;;;;;;;;383584;140;864892;-66
2022/07/08 05:12:46;;;;;;;5.99;3.19;;;;;;;;;;383628;140;867369;-65
2022/07/08 05:13:48;;;;;;;5.79;2.92;;;;;;;;;;383609;140;866701;-65
2022/07/08 05:14:49;;;;;;;5.09;2.66;;;;;;;;;;383366;139;864862;-66
2022/07/08 05:15:51;;;;;;;8.97;3.24;;;;;;;;;;377035;142;858101;-66
2022/07/08 05:16:53;;;;;;;4.67;2.89;;;;;;;;;;376958;140;864743;-66
2022/07/08 05:17:55;;;;;;;4.28;2.87;;;;;;;;;;383518;139;857383;-66
2022/07/08 05:18:57;;;;;;;5.15;2.73;;;;;;;;;;383439;139;861274;-66
2022/07/08 05:19:58;;;;;;;5.22;2.86;;;;;;;;;;383613;139;866045;-66
2022/07/08 05:21:00;;;;;;;4.29;2.94;;;;;;;;;;383667;140;857324;-66
2022/07/08 05:22:02;;;;;;;4.27;2.79;;;;;;;;;;383600;140;867155;-66
2022/07/08 05:23:04;;;;;;;5.35;2.90;;;;;;;;;;383595;139;864972;-66
2022/07/08 05:24:06;;;;;;;4.34;3.12;;;;;;;;;;383619;139;859435;-66
2022/07/08 05:25:08;;;;;;;4.53;3.05;;;;;;;;;;383429;139;859935;-66
2022/07/08 05:26:11;;;;;;;6.56;3.20;;;;;;;;;;383324;139;859852;-65
2022/07/08 05:27:13;;;;;;;7.13;2.94;;;;;;;;;;383347;139;866596;-65
2022/07/08 05:28:14;;;;;;;9.56;3.45;;;;;;;;;;383679;139;857597;-65
2022/07/08 05:29:16;;;;;;;8.31;2.83;;;;;;;;;;383368;139;866818;-65
2022/07/08 05:30:19;;;;;;;8.53;2.72;;;;;;;;;;377050;142;858940;-66
2022/07/08 05:31:21;;;;;;;5.81;2.84;;;;;;;;;;377090;142;864456;-64
2022/07/08 05:32:22;;;;;;;13.41;3.13;;;;;;;;;;383304;140;864913;-65
2022/07/08 05:33:24;;;;;;;8.65;2.72;;;;;;;;;;383634;140;860352;-64
2022/07/08 05:34:26;;;;;;;4.41;2.99;;;;;;;;;;383653;140;858321;-64
2022/07/08 05:35:28;;;;;;;4.21;2.81;;;;;;;;;;383638;139;865148;-65
2022/07/08 05:36:31;;;;;;;5.38;3.17;;;;;;;;;;383333;139;857449;-65
2022/07/08 05:37:34;;;;;;;4.53;3.40;;;;;;;;;;383710;139;857431;-65
2022/07/08 05:38:36;;;;;;;4.21;2.83;;;;;;;;;;383570;139;857535;-64
2022/07/08 05:39:38;;;;;;;5.42;2.79;;;;;;;;;;383471;140;857501;-65
2022/07/08 05:40:40;;;;;;;5.72;2.90;;;;;;;;;;383247;140;866844;-65
2022/07/08 05:41:42;;;;;;;4.62;2.76;;;;;;;;;;383655;140;857596;-65
2022/07/08 05:42:44;;;;;;;5.14;2.88;;;;;;;;;;383289;140;867260;-64
2022/07/08 05:43:46;;;;;;;4.13;2.80;;;;;;;;;;383612;140;858842;-64
2022/07/08 05:44:48;;;;;;;7.02;3.36;;;;;;;;;;383593;140;865126;-63
2022/07/08 05:45:49;;;;;;;7.91;2.76;;;;;;;;;;383654;139;857363;-66
2022/07/08 05:46:51;;;;;;;9.76;2.70;;;;;;;;;;383622;140;858573;-66
2022/07/08 05:47:53;;;;;;;7.31;3.14;;;;;;;;;;383645;140;859392;-66
2022/07/08 05:48:55;;;;;;;5.83;3.02;;;;;;;;;;383607;139;864867;-64
2022/07/08 05:49:57;;;;;;;7.21;3.14;;;;;;;;;;383658;140;858343;-65
2022/07/08 05:50:59;;;;;;;6.42;2.72;;;;;;;;;;383588;139;865028;-64
2022/07/08 05:52:00;;;;;;;5.15;2.44;;;;;;;;;;383592;140;864726;-65
2022/07/08 05:53:02;;;;;;;9.54;2.84;;;;;;;;;;383566;140;865867;-65
2022/07/08 05:54:04;;;;;;;3.26;2.59;;;;;;;;;;383596;139;864866;-65
2022/07/08 05:55:06;;;;;;;7.52;3.17;;;;;;;;;;373631;142;866192;-66
2022/07/08 05:56:09;;;;;;;10.04;3.04;;;;;;;;;;367113;144;867503;-66
2022/07/08 05:57:12;;;;;;;9.34;3.46;;;;;;;;;;373195;144;859866;-66
2022/07/08 05:58:13;;;;;;;7.57;3.41;;;;;;;;;;373100;143;866390;-66
2022/07/08 05:59:15;;;;;;;7.15;3.65;;;;;;;;;;373157;144;859269;-66
2022/07/08 06:00:19;;;;;;;6.76;3.52;;;;;;;;;;372879;143;864868;-65
2022/07/08 06:01:21;;;;;;;6.99;3.61;;;;;;;;;;372891;143;859345;-65
2022/07/08 06:02:23;;;;;;;8.70;3.49;;;;;;;;;;373141;143;859246;-65
2022/07/08 06:03:25;;;;;;;5.64;3.23;;;;;;;;;;373174;144;858310;-65
2022/07/08 06:04:26;;;;;;;12.11;3.86;;;;;;;;;;373131;144;865589;-65
2022/07/08 06:05:28;;;;;;;11.27;3.52;;;;;;;;;;373114;144;865385;-65
2022/07/08 06:06:32;;;;;;;7.00;3.34;;;;;;;;;;372851;144;862443;-67
2022/07/08 06:07:33;;;;;;;8.51;3.60;;;;;;;;;;373592;144;864369;-66
2022/07/08 06:08:35;;;;;;;6.28;3.88;;;;;;;;;;373622;144;864491;-66
2022/07/08 06:09:37;;;;;;;9.65;3.86;;;;;;;;;;373114;144;864895;-66
2022/07/08 06:10:39;;;;;;;9.21;3.47;;;;;;;;;;373163;143;859421;-66
2022/07/08 06:11:40;;;;;;;14.65;3.45;;;;;;;;;;366679;146;865041;-65
2022/07/08 06:12:42;;;;;;;9.74;3.51;;;;;;;;;;366872;144;858177;-66
2022/07/08 06:13:44;;;;;;;7.19;3.49;;;;;;;;;;373210;144;860706;-66
2022/07/08 06:14:46;;;;;;;9.04;3.48;;;;;;;;;;373086;144;867868;-66